Salem, OR

7:09 PM PDT on September 14, 2014 (GMT -0700)
McMinnville Municipal | Change Station
CLOSE
Current Station
Airport
Location: McMinnville,
Elevation: 157 ft
Nearby Weather Stations

Elev 157 ft 45.19 °N, 123.14 °W | Updated 16 minutes ago

Clear
Clear
81 °F
Feels Like 81 °F
N
0
Wind Variable Wind from North

Today
High -- | Low -- °F
--% Chance of Precip.
Yesterday
High -- | Low -- °F
Precip. -- in
6:49 AM 7:24 PM
Waning Gibbous, 60% visible
Pressure 29.79 in
Visibility 8.0 miles
Clouds Clear
Dew Point 47 °F
Humidity 30%
Rainfall 0.00 in
Snow Depth 0 in , 0 in , 0 in
UV 0 out of 12
Pollen 2.40 out of 12
Air Quality Not available.
Flu Activity Not available.
METAR KMMV 150153Z AUTO 00000KT 8SM CLR 27/08 A2980 RMK AO2 SLP088 T02720083 $

More Conditions Fewer Conditions

Pressure 29.79 in
Visibility 8.0 miles
Clouds Clear
Dew Point 47 °F
Humidity 30%
Rainfall 0.00 in
Snow Depth 0 in , 0 in , 0 in
UV 0 out of 12
Pollen 2.40 out of 12
Air Quality Not available.
Flu Activity Not available.
METAR KMMV 150153Z AUTO 00000KT 8SM CLR 27/08 A2980 RMK AO2 SLP088 T02720083 $

More Conditions Fewer Conditions

10-Day Weather Forecast

Almanac

Astronomy

Sep. 14, 2014 Rise Set
Actual Time 6:49 AM PDT 7:24 PM PDT
Civil Twilight 6:19 AM PDT 7:53 PM PDT
Nautical Twilight 5:45 AM PDT 8:28 PM PDT
Astronomical Twilight 5:08 AM PDT 9:04 PM PDT
Moon 11:06 PM PDT (9/14) 1:15 PM PDT (9/14)
Length of Visible Light 13h 33m
Length of Day
12h 34m
Tomorrow will be 3m 6s shorter.
Waning Gibbous, 60% of the Moon is Illuminated
Today
Waning Gibbous
Sep 15
Last Quarter
Sep 24
New
Oct 1
First Quarter
Oct 8
Full

Today's Extremes

State Highs State Lows

Community

WunderPhotos

Upload Photos

1,753,371 photos uploaded!

Nearby

Snow Depth

Station Depth Elevation
Lucky Strike 0 in 5050 ft
Roaring River 0 in 4900 ft
Fish Lake 0 in 4665 ft
Mt. Howard 0 in 7910 ft
Blazed Alder 0 in 3650 ft

Earthquake Activity

City Distance Mag. Time & Date
No recent earthquake activity has been reported nearby.
Minimum magnitude displayed is 2.5.

Coastal Water Temperatures

Place Temperature
No Stations Reporting

Nearby Weather Stations